Terminal Aerodrome Forecast
Issued by NWS Portland, ME

Home | Current Version | Previous Version | Text Only | Print | Product List | Glossary On
Versions: 1 2 3 4 5 6 7 8 9 10 11 12 13 14 15 16 17 18 19 20 21 22 23 24 25 26 27 28
000
FTUS41 KGYX 180249 AAB
TAFCON
TAF AMD
KCON 180249Z 1803/1824 15006KT 2SM -SN SCT025 OVC035
      TEMPO 1803/1806 1 1/2SM -SN OVC025
     FM180600 16005KT 3/4SM -SN OVC006
     FM181100 31005KT 5SM -SHSN OVC030
     FM181400 31012G21KT P6SM SCT050
     FM181800 31013G20KT P6SM SKC=

USA.gov is the U.S. government's official web portal to all federal, state and local government web resources and services.